Bledsoe, Kentucky
Current Conditions -  °F | °C
As of 6:55 PM on Saturday 22 Nov 2014 (Local Time) from KI35 Reporting Station
Clear Clear  
Wind Chill: 50°   Ceiling: Unl
Heat Index: 50°   Visibility: 10mi
Dew Point: 21°   Wind: 6mph
Humidity: 32%   Direction: 90°E
Pressure: 30.21"   Gusts: NA
Location:  36.87°N, 83.42°W
Report Text: KI35 222355Z AUTO 09005KT 10SM CLR 10/M06 A3021 RMK AO1
Loading
Personal Weather Stations






























Interactive Weather Map New forecast layout! Learn more

10-Day Weather Forecast

Advertisements
Track Severe Weather on mobile